createdAt,value
2023-04-16T00:00:14.184Z,1.38
2023-04-16T00:04:06.401Z,1.80
2023-04-16T00:06:34.180Z,1.20
2023-04-16T00:12:31.616Z,1.60
2023-04-16T00:15:08.150Z,1.13
2023-04-16T00:24:45.833Z,0.38
2023-04-16T00:27:14.241Z,0.85
2023-04-16T00:29:48.964Z,0.60
2023-04-16T00:32:30.639Z,0.80
2023-04-16T00:35:01.248Z,1.02
2023-04-16T00:38:17.272Z,0.82
2023-04-16T00:41:49.675Z,0.60
2023-04-16T00:48:48.950Z,0.40
2023-04-16T00:51:16.645Z,0.70
2023-04-16T00:53:45.417Z,0.63
2023-04-16T00:56:20.729Z,0.70
2023-04-16T00:58:59.438Z,0.50
2023-04-16T01:10:30.302Z,0.50
2023-04-16T01:13:59.741Z,0.43
2023-04-16T01:25:06.869Z,0.50
2023-04-16T01:27:56.456Z,0.65
2023-04-16T02:00:23.257Z,0.57
2023-04-16T02:02:54.362Z,0.50
2023-04-16T02:05:35.505Z,0.60
2023-04-16T02:08:11.406Z,0.40
2023-04-16T02:10:53.793Z,0.60
2023-04-16T02:13:34.751Z,0.40
2023-04-16T02:29:02.219Z,0.43
2023-04-16T02:53:18.815Z,0.40
2023-04-16T03:16:58.037Z,0.65
2023-04-16T03:19:30.574Z,0.70
2023-04-16T03:21:57.362Z,0.65
2023-04-16T03:24:24.174Z,0.63
2023-04-16T03:26:58.061Z,0.65
2023-04-16T03:29:27.266Z,1.25
2023-04-16T03:35:43.736Z,1.50
2023-04-16T03:38:22.615Z,1.25
2023-04-16T03:40:49.681Z,1.48
2023-04-16T03:43:19.460Z,1.13
2023-04-16T03:45:47.060Z,1.38
2023-04-16T03:48:14.165Z,1.27
2023-04-16T03:50:41.854Z,1.30
2023-04-16T03:53:08.737Z,1.20
2023-04-16T03:55:36.438Z,1.23
2023-04-16T03:58:05.157Z,1.10
2023-04-16T04:00:32.567Z,1.20
2023-04-16T04:02:59.691Z,1.42
2023-04-16T04:05:29.802Z,1.10
2023-04-16T04:07:56.873Z,1.00
2023-04-16T04:10:24.051Z,0.90
2023-04-16T04:13:01.157Z,1.33
2023-04-16T04:15:28.217Z,0.98
2023-04-16T04:18:04.512Z,1.17
2023-04-16T04:20:52.779Z,1.35
2023-04-16T04:23:28.352Z,1.25
2023-04-16T04:29:12.688Z,1.70
2023-04-16T04:35:50.952Z,3.38
2023-04-16T04:41:32.216Z,1.83
2023-04-16T04:43:59.990Z,0.80
2023-04-16T04:46:30.106Z,0.80
2023-04-16T04:49:03.869Z,1.20
2023-04-16T04:51:36.067Z,0.82
2023-04-16T04:54:02.757Z,0.95
2023-04-16T04:59:53.641Z,1.15
2023-04-16T05:02:30.930Z,0.90
2023-04-16T05:05:30.700Z,0.82
2023-04-16T05:10:55.687Z,1.00
2023-04-16T05:13:34.415Z,0.88
2023-04-16T05:16:13.274Z,0.80
2023-04-16T05:18:56.871Z,0.77
2023-04-16T05:21:41.987Z,0.60
2023-04-16T05:24:36.652Z,0.88
2023-04-16T05:27:19.144Z,1.15
2023-04-16T05:29:46.744Z,0.85
2023-04-16T05:32:14.475Z,1.65
2023-04-16T05:34:41.305Z,1.17
2023-04-16T05:37:11.672Z,1.50
2023-04-16T05:42:51.069Z,1.48
2023-04-16T05:45:57.300Z,1.33
2023-04-16T05:49:23.531Z,0.77
2023-04-16T05:52:07.106Z,1.25
2023-04-16T05:55:00.561Z,1.35
2023-04-16T05:57:29.187Z,1.45
2023-04-16T06:03:21.934Z,0.82
2023-04-16T06:08:38.366Z,1.35
2023-04-16T06:14:35.295Z,1.17
2023-04-16T06:18:03.560Z,1.20
2023-04-16T06:20:19.294Z,1.10
2023-04-16T06:25:56.536Z,1.30
2023-04-16T06:31:13.826Z,1.40
2023-04-16T06:44:54.206Z,1.08
2023-04-16T06:47:21.261Z,1.17
2023-04-16T06:49:47.945Z,1.20
2023-04-16T06:52:47.505Z,0.98
2023-04-16T06:55:14.242Z,1.63
2023-04-16T06:57:41.328Z,2.03
2023-04-16T07:00:21.414Z,1.67
2023-04-16T07:03:38.275Z,1.85
2023-04-16T07:05:39.420Z,2.55
2023-04-16T07:08:14.238Z,1.92
2023-04-16T07:10:41.054Z,1.50
2023-04-16T07:16:37.938Z,1.40
2023-04-16T07:19:04.908Z,1.35
2023-04-16T07:24:45.597Z,1.67
2023-04-16T07:27:15.383Z,1.60
2023-04-16T07:33:30.101Z,2.00
2023-04-16T07:35:56.894Z,1.30
2023-04-16T07:38:29.493Z,1.80
2023-04-16T07:41:41.355Z,1.17
2023-04-16T07:44:25.997Z,2.20
2023-04-16T07:47:07.952Z,2.08
2023-04-16T07:49:46.557Z,1.73
2023-04-16T07:52:32.557Z,1.38
2023-04-16T07:54:59.532Z,1.60
2023-04-16T07:57:26.770Z,3.80
2023-04-16T07:59:53.608Z,1.55
2023-04-16T08:02:20.416Z,1.47
2023-04-16T08:04:48.090Z,1.63
2023-04-16T08:10:03.736Z,1.70
2023-04-16T08:12:31.202Z,1.83
2023-04-16T08:14:57.861Z,1.63
2023-04-16T08:20:30.561Z,2.03
2023-04-16T08:26:01.482Z,1.85
2023-04-16T08:28:28.176Z,2.15
2023-04-16T08:30:55.020Z,1.85
2023-04-16T08:33:57.274Z,2.30
2023-04-16T08:36:24.572Z,2.13
2023-04-16T08:38:58.537Z,2.50
2023-04-16T08:45:25.137Z,1.85
2023-04-16T08:48:41.989Z,1.85
2023-04-16T09:01:42.081Z,2.53
2023-04-16T09:04:29.592Z,2.50
2023-04-16T09:06:59.704Z,2.60
2023-04-16T09:09:26.978Z,2.50
2023-04-16T09:12:14.321Z,3.03
2023-04-16T09:15:28.107Z,2.53
2023-04-16T09:17:56.848Z,2.58
2023-04-16T09:20:23.955Z,2.40
2023-04-16T09:29:01.478Z,2.83
2023-04-16T09:37:20.848Z,2.50
2023-04-16T09:43:35.517Z,2.28
2023-04-16T09:43:38.242Z,3.20
2023-04-16T09:52:40.693Z,2.10
2023-04-16T09:55:30.844Z,1.70
2023-04-16T09:58:01.707Z,2.00
2023-04-16T10:00:31.185Z,2.08
2023-04-16T10:03:45.913Z,2.50
2023-04-16T10:06:17.343Z,2.05
2023-04-16T10:08:52.111Z,2.20
2023-04-16T10:11:20.306Z,2.00
2023-04-16T10:13:47.596Z,2.55
2023-04-16T10:16:17.653Z,2.20
2023-04-16T10:18:46.498Z,2.00
2023-04-16T10:21:21.858Z,2.22
2023-04-16T10:23:49.836Z,2.08
2023-04-16T10:26:26.929Z,1.90
2023-04-16T10:28:58.117Z,2.17
2023-04-16T10:31:26.582Z,2.40
2023-04-16T10:33:53.881Z,2.13
2023-04-16T10:36:28.283Z,1.98
2023-04-16T10:42:32.725Z,1.85
2023-04-16T10:45:00.865Z,2.63
2023-04-16T10:47:29.788Z,1.90
2023-04-16T10:50:01.841Z,1.88
2023-04-16T10:52:29.665Z,2.00
2023-04-16T10:55:01.427Z,1.58
2023-04-16T10:57:32.604Z,1.33
2023-04-16T10:59:59.545Z,1.75
2023-04-16T11:02:30.307Z,1.95
2023-04-16T11:04:58.026Z,1.38
2023-04-16T11:07:39.416Z,1.38
2023-04-16T11:10:08.195Z,1.63
2023-04-16T11:12:39.775Z,1.20
2023-04-16T11:15:08.375Z,1.30
2023-04-16T11:17:48.739Z,1.60
2023-04-16T11:20:25.009Z,1.38
2023-04-16T11:22:54.005Z,1.17
2023-04-16T11:25:24.964Z,1.25
2023-04-16T11:27:52.665Z,1.35
2023-04-16T11:33:18.831Z,1.38
2023-04-16T11:39:03.781Z,1.08
2023-04-16T11:41:57.963Z,0.70
2023-04-16T11:44:28.037Z,1.10
2023-04-16T11:53:34.653Z,0.70
2023-04-16T11:56:14.464Z,0.90
2023-04-16T11:59:27.755Z,0.82
2023-04-16T12:01:58.497Z,0.98
2023-04-16T12:10:56.282Z,0.75
2023-04-16T12:13:59.078Z,0.60
2023-04-16T12:17:17.361Z,0.73
2023-04-16T12:19:57.930Z,0.28
2023-04-16T12:22:34.651Z,1.20
2023-04-16T12:25:07.769Z,0.95
2023-04-16T12:36:03.034Z,1.02
2023-04-16T12:38:05.425Z,1.00
2023-04-16T12:40:52.644Z,0.70
2023-04-16T12:43:22.824Z,1.10
2023-04-16T12:52:47.109Z,0.50
2023-04-16T12:55:14.683Z,1.00
2023-04-16T12:57:41.538Z,0.90
2023-04-16T13:00:10.704Z,1.05
2023-04-16T13:03:41.356Z,0.80
2023-04-16T13:09:15.035Z,0.90
2023-04-16T13:14:52.350Z,0.98
2023-04-16T13:17:19.392Z,3.40
2023-04-16T13:19:49.020Z,0.80
2023-04-16T13:22:19.427Z,0.60
2023-04-16T13:27:32.264Z,0.73
2023-04-16T13:30:12.113Z,0.90
2023-04-16T13:32:44.488Z,0.68
2023-04-16T13:35:11.934Z,0.80
2023-04-16T13:38:29.603Z,1.10
2023-04-16T13:40:56.464Z,0.70
2023-04-16T13:43:23.514Z,0.70
2023-04-16T13:46:31.827Z,0.68
2023-04-16T13:49:34.990Z,0.60
2023-04-16T13:52:02.521Z,1.25
2023-04-16T13:54:39.294Z,0.70
2023-04-16T13:57:10.060Z,0.93
2023-04-16T13:59:37.476Z,0.95
2023-04-16T14:02:11.798Z,1.15
2023-04-16T14:04:47.014Z,1.45
2023-04-16T14:07:24.551Z,1.02
2023-04-16T14:13:25.742Z,1.40
2023-04-16T14:20:14.365Z,1.45
2023-04-16T14:26:23.801Z,1.13
2023-04-16T14:29:53.640Z,1.00
2023-04-16T14:32:56.462Z,0.95
2023-04-16T14:35:23.753Z,0.90
2023-04-16T14:40:46.084Z,0.70
2023-04-16T14:43:19.031Z,0.90
2023-04-16T14:45:46.493Z,0.70
2023-04-16T14:48:13.828Z,0.60
2023-04-16T14:50:44.310Z,0.50
2023-04-16T14:53:21.309Z,0.95
2023-04-16T14:55:48.130Z,0.60
2023-04-16T14:58:17.666Z,0.50
2023-04-16T15:00:47.734Z,0.95
2023-04-16T15:03:24.098Z,0.80
2023-04-16T15:06:01.753Z,0.60
2023-04-16T15:08:28.547Z,0.57
2023-04-16T15:10:58.334Z,0.83
2023-04-16T15:13:25.535Z,0.70
2023-04-16T15:15:59.579Z,0.60
2023-04-16T15:18:30.181Z,0.73
2023-04-16T15:20:57.127Z,1.85
2023-04-16T15:23:24.607Z,1.40
2023-04-16T15:25:52.216Z,1.10
2023-04-16T15:28:22.474Z,0.90
2023-04-16T15:30:53.231Z,1.13
2023-04-16T15:33:32.708Z,1.52
2023-04-16T15:36:19.381Z,1.85
2023-04-16T15:39:05.132Z,1.35
2023-04-16T15:41:33.059Z,1.23
2023-04-16T15:44:03.448Z,1.35
2023-04-16T15:46:30.897Z,1.15
2023-04-16T15:49:26.337Z,1.67
2023-04-16T15:51:54.190Z,1.13
2023-04-16T15:54:21.856Z,2.58
2023-04-16T15:59:17.107Z,1.55
2023-04-16T16:01:55.822Z,1.80
2023-04-16T16:04:24.108Z,1.48
2023-04-16T16:07:03.348Z,1.13
2023-04-16T16:09:43.284Z,1.60
2023-04-16T16:12:10.397Z,1.20
2023-04-16T16:14:40.767Z,1.15
2023-04-16T16:17:21.315Z,1.30
2023-04-16T16:19:50.855Z,2.22
2023-04-16T16:22:20.634Z,1.17
2023-04-16T16:25:00.927Z,1.40
2023-04-16T16:27:28.493Z,1.20
2023-04-16T16:29:55.492Z,1.63
2023-04-16T16:32:22.470Z,1.90
2023-04-16T16:34:49.314Z,1.83
2023-04-16T16:37:16.613Z,1.73
2023-04-16T16:39:46.338Z,1.52
2023-04-16T16:42:14.138Z,1.77
2023-04-16T16:47:08.183Z,1.85
2023-04-16T16:49:38.052Z,2.72
2023-04-16T16:52:05.160Z,1.63
2023-04-16T16:54:31.804Z,1.92
2023-04-16T16:56:58.914Z,1.50
2023-04-16T16:59:29.730Z,1.60
2023-04-16T17:01:56.770Z,1.77
2023-04-16T17:04:25.386Z,1.50
2023-04-16T17:07:32.837Z,1.50
2023-04-16T17:10:21.355Z,2.00
2023-04-16T17:13:06.960Z,0.90
2023-04-16T17:15:34.815Z,1.00
2023-04-16T17:18:01.591Z,1.27
2023-04-16T17:20:28.532Z,1.08
2023-04-16T17:22:59.489Z,1.10
2023-04-16T17:28:33.867Z,1.35
2023-04-16T17:31:38.161Z,1.08
2023-04-16T17:34:08.764Z,1.02
2023-04-16T17:36:50.363Z,0.90
2023-04-16T17:39:27.545Z,1.13
2023-04-16T17:42:35.451Z,0.95
2023-04-16T17:45:09.590Z,2.90
2023-04-16T17:47:42.712Z,1.20
2023-04-16T17:50:40.139Z,1.63
2023-04-16T17:56:07.348Z,1.42
2023-04-16T17:59:02.097Z,1.35
2023-04-16T18:01:31.349Z,1.40
2023-04-16T18:04:27.878Z,1.40
2023-04-16T18:07:14.129Z,0.95
2023-04-16T18:09:53.946Z,1.45
2023-04-16T18:12:36.463Z,1.20
2023-04-16T18:15:07.440Z,1.63
2023-04-16T18:17:34.885Z,1.50
2023-04-16T18:20:12.853Z,1.13
2023-04-16T18:22:46.139Z,1.00
2023-04-16T18:25:29.943Z,1.02
2023-04-16T18:28:01.955Z,1.40
2023-04-16T18:30:40.495Z,1.20
2023-04-16T18:33:37.341Z,1.00
2023-04-16T18:36:05.313Z,1.48
2023-04-16T18:41:08.359Z,1.40
2023-04-16T18:43:56.734Z,1.65
2023-04-16T18:46:25.829Z,1.50
2023-04-16T18:48:55.096Z,1.67
2023-04-16T18:51:23.389Z,1.50
2023-04-16T18:53:51.540Z,1.50
2023-04-16T18:56:19.213Z,1.83
2023-04-16T18:58:50.362Z,1.90
2023-04-16T19:01:20.924Z,1.40
2023-04-16T19:03:54.050Z,1.60
2023-04-16T19:09:50.509Z,1.30
2023-04-16T19:13:04.947Z,1.60
2023-04-16T19:15:53.011Z,1.80
2023-04-16T19:18:37.983Z,1.95
2023-04-16T19:21:24.239Z,1.50
2023-04-16T19:26:55.478Z,1.60
2023-04-16T19:32:26.108Z,1.50
2023-04-16T19:36:03.224Z,1.95
2023-04-16T19:42:12.516Z,2.05
2023-04-16T19:50:59.336Z,1.88
2023-04-16T19:57:51.386Z,1.98
2023-04-16T20:04:56.429Z,1.80
2023-04-16T20:05:00.773Z,1.95
2023-04-16T20:08:36.209Z,1.70
2023-04-16T20:11:40.552Z,1.95
2023-04-16T20:22:49.737Z,1.98
2023-04-16T20:25:59.281Z,2.60
2023-04-16T20:29:15.981Z,2.00
2023-04-16T20:32:28.514Z,1.95
2023-04-16T20:35:12.471Z,1.77
2023-04-16T20:41:26.556Z,1.55
2023-04-16T20:44:07.026Z,1.70
2023-04-16T20:47:01.843Z,1.77
2023-04-16T20:56:01.394Z,1.50
2023-04-16T21:02:29.629Z,1.88
2023-04-16T21:04:48.363Z,1.65
2023-04-16T21:11:09.300Z,1.90
2023-04-16T21:14:14.807Z,2.00
2023-04-16T21:16:49.469Z,1.63
2023-04-16T21:22:44.250Z,1.65
2023-04-16T21:25:54.119Z,1.73
2023-04-16T21:28:18.945Z,1.67
2023-04-16T21:30:56.208Z,2.00
2023-04-16T21:33:27.539Z,1.70
2023-04-16T21:35:58.886Z,1.65
2023-04-16T21:38:36.167Z,1.50
2023-04-16T21:43:49.456Z,2.20
2023-04-16T21:49:16.300Z,1.70
2023-04-16T21:55:00.404Z,1.73
2023-04-16T21:57:38.341Z,2.08
2023-04-16T22:03:31.527Z,1.30
2023-04-16T22:06:11.236Z,1.70
2023-04-16T22:08:43.294Z,1.73
2023-04-16T22:11:31.817Z,2.00
2023-04-16T22:14:20.855Z,2.08
2023-04-16T22:17:11.569Z,1.85
2023-04-16T22:19:57.806Z,1.80
2023-04-16T22:22:31.787Z,1.75
2023-04-16T22:25:16.301Z,1.85
2023-04-16T22:27:44.625Z,1.77
2023-04-16T22:30:28.261Z,2.10
2023-04-16T22:33:00.375Z,1.92
2023-04-16T22:35:41.262Z,2.00
2023-04-16T22:41:55.772Z,1.63
2023-04-16T22:48:00.378Z,1.50
2023-04-16T22:50:34.029Z,1.77
2023-04-16T22:56:00.279Z,2.10
2023-04-16T22:58:31.672Z,1.95
2023-04-16T23:01:06.452Z,2.25
2023-04-16T23:03:41.035Z,2.13
2023-04-16T23:06:08.161Z,2.08
2023-04-16T23:08:51.174Z,2.00
2023-04-16T23:11:20.816Z,2.22
2023-04-16T23:13:55.875Z,2.10
2023-04-16T23:16:23.372Z,2.05
2023-04-16T23:18:50.771Z,1.88
2023-04-16T23:21:21.081Z,2.15
2023-04-16T23:23:53.819Z,2.08
2023-04-16T23:26:27.704Z,2.00
2023-04-16T23:28:58.561Z,2.40
2023-04-16T23:31:31.546Z,2.33
2023-04-16T23:34:03.457Z,2.20
2023-04-16T23:36:34.798Z,2.05
2023-04-16T23:40:00.328Z,2.22
2023-04-16T23:42:28.466Z,2.15
2023-04-16T23:45:17.840Z,1.80
2023-04-16T23:48:01.120Z,1.90
2023-04-16T23:50:29.209Z,2.13
2023-04-16T23:55:58.107Z,1.98
2023-04-16T23:58:48.594Z,2.15
